createdAt,value
2018-02-07T00:01:55.770Z,1.40
2018-02-07T00:04:23.336Z,1.40
2018-02-07T00:06:50.815Z,1.40
2018-02-07T00:09:19.066Z,1.40
2018-02-07T00:11:46.562Z,1.30
2018-02-07T00:14:14.050Z,1.40
2018-02-07T00:16:42.295Z,1.40
2018-02-07T00:19:09.787Z,1.40
2018-02-07T00:21:37.295Z,1.40
2018-02-07T00:24:04.870Z,1.40
2018-02-07T00:26:32.347Z,1.40
2018-02-07T00:28:59.874Z,1.40
2018-02-07T00:31:27.354Z,1.30
2018-02-07T00:33:54.848Z,1.40
2018-02-07T00:36:22.391Z,1.40
2018-02-07T00:38:49.875Z,1.40
2018-02-07T00:41:18.454Z,1.40
2018-02-07T00:43:45.931Z,1.40
2018-02-07T00:46:13.406Z,1.40
2018-02-07T00:48:41.662Z,1.30
2018-02-07T00:51:09.153Z,1.30
2018-02-07T00:53:36.732Z,1.40
2018-02-07T00:56:04.303Z,1.30
2018-02-07T00:58:31.783Z,1.40
2018-02-07T01:01:00.081Z,1.30
2018-02-07T01:03:28.323Z,1.20
2018-02-07T01:05:55.818Z,1.20
2018-02-07T01:08:23.303Z,1.30
2018-02-07T01:10:51.579Z,1.30
2018-02-07T01:13:19.066Z,1.30
2018-02-07T01:15:47.310Z,1.40
2018-02-07T01:18:14.787Z,1.30
2018-02-07T01:20:42.275Z,1.30
2018-02-07T01:23:09.847Z,1.40
2018-02-07T01:25:37.419Z,1.40
2018-02-07T01:28:04.896Z,1.40
2018-02-07T01:30:32.374Z,1.40
2018-02-07T01:33:00.659Z,1.50
2018-02-07T01:35:28.135Z,1.40
2018-02-07T01:37:56.723Z,1.50
2018-02-07T01:40:24.198Z,1.40
2018-02-07T01:42:52.446Z,1.40
2018-02-07T01:45:19.940Z,1.40
2018-02-07T01:47:47.418Z,1.40
2018-02-07T01:50:15.019Z,1.40
2018-02-07T01:52:42.562Z,1.40
2018-02-07T01:55:10.061Z,1.30
2018-02-07T01:57:37.607Z,1.30
2018-02-07T02:00:05.084Z,1.30
2018-02-07T02:02:33.347Z,1.30
2018-02-07T02:05:00.827Z,1.30
2018-02-07T02:07:28.403Z,1.40
2018-02-07T02:09:56.692Z,1.40
2018-02-07T02:12:24.262Z,1.30
2018-02-07T02:14:52.043Z,1.40
2018-02-07T02:17:19.522Z,1.40
2018-02-07T02:19:47.845Z,1.40
2018-02-07T02:22:15.330Z,1.40
2018-02-07T02:24:42.851Z,1.40
2018-02-07T02:27:10.354Z,1.40
2018-02-07T02:29:37.840Z,1.30
2018-02-07T02:32:05.319Z,1.40
2018-02-07T02:34:32.826Z,1.30
2018-02-07T02:37:00.303Z,1.30
2018-02-07T02:39:29.025Z,1.30
2018-02-07T02:41:56.599Z,1.30
2018-02-07T02:44:24.178Z,1.20
2018-02-07T02:46:51.742Z,1.20
2018-02-07T02:49:19.222Z,1.20
2018-02-07T02:51:47.063Z,1.20
2018-02-07T02:54:14.627Z,1.20
2018-02-07T02:56:42.201Z,1.20
2018-02-07T02:59:09.695Z,1.20
2018-02-07T03:01:37.963Z,1.10
2018-02-07T03:04:05.738Z,1.10
2018-02-07T03:06:33.311Z,1.20
2018-02-07T03:09:01.566Z,1.10
2018-02-07T03:11:29.055Z,1.10
2018-02-07T03:13:56.539Z,1.10
2018-02-07T03:16:24.145Z,1.20
2018-02-07T03:18:51.655Z,1.10
2018-02-07T03:21:19.126Z,1.10
2018-02-07T03:23:46.657Z,1.10
2018-02-07T03:26:14.135Z,1.10
2018-02-07T03:28:41.623Z,1.10
2018-02-07T03:31:09.103Z,1.10
2018-02-07T03:33:36.595Z,1.10
2018-02-07T03:36:04.066Z,1.10
2018-02-07T03:38:31.754Z,1.10
2018-02-07T03:41:00.039Z,1.00
2018-02-07T03:43:27.510Z,1.00
2018-02-07T03:45:54.994Z,1.00
2018-02-07T03:48:23.247Z,1.10
2018-02-07T03:50:50.730Z,1.10
2018-02-07T03:53:18.209Z,1.10
2018-02-07T03:55:45.702Z,1.10
2018-02-07T03:58:13.942Z,1.10
2018-02-07T04:00:41.419Z,1.00
2018-02-07T04:03:09.008Z,1.10
2018-02-07T04:05:36.483Z,1.10
2018-02-07T04:08:03.975Z,1.10
2018-02-07T04:10:32.247Z,1.10
2018-02-07T04:12:59.736Z,1.10
2018-02-07T04:15:27.987Z,1.10
2018-02-07T04:17:55.467Z,1.10
2018-02-07T04:20:22.978Z,1.10
2018-02-07T04:22:50.547Z,1.10
2018-02-07T04:25:18.117Z,1.10
2018-02-07T04:27:45.663Z,1.20
2018-02-07T04:30:13.235Z,1.10
2018-02-07T04:32:40.906Z,1.10
2018-02-07T04:35:08.388Z,1.10
2018-02-07T04:37:36.671Z,1.10
2018-02-07T04:40:04.159Z,1.10
2018-02-07T04:42:32.403Z,1.10
2018-02-07T04:45:00.202Z,1.10
2018-02-07T04:47:27.774Z,1.10
2018-02-07T04:49:55.355Z,1.00
2018-02-07T04:52:22.923Z,1.00
2018-02-07T04:54:50.495Z,0.90
2018-02-07T04:57:17.995Z,0.80
2018-02-07T04:59:45.535Z,0.80
2018-02-07T05:02:13.015Z,0.80
2018-02-07T05:04:41.279Z,0.80
2018-02-07T05:07:08.762Z,0.80
2018-02-07T05:09:36.342Z,0.70
2018-02-07T05:12:03.830Z,0.70
2018-02-07T05:14:32.075Z,0.60
2018-02-07T05:16:59.562Z,0.60
2018-02-07T05:19:27.068Z,0.60
2018-02-07T05:21:54.550Z,0.60
2018-02-07T05:24:22.115Z,0.60
2018-02-07T05:26:50.070Z,0.60
2018-02-07T05:29:18.347Z,0.60
2018-02-07T05:31:45.822Z,0.60
2018-02-07T05:34:13.314Z,0.70
2018-02-07T05:36:41.610Z,0.70
2018-02-07T05:39:09.253Z,0.70
2018-02-07T05:41:37.543Z,0.80
2018-02-07T05:44:05.145Z,0.70
2018-02-07T05:46:32.635Z,0.80
2018-02-07T05:49:00.116Z,0.80
2018-02-07T05:51:27.626Z,0.80
2018-02-07T05:53:55.102Z,0.70
2018-02-07T05:56:22.583Z,0.60
2018-02-07T05:58:50.839Z,0.60
2018-02-07T06:01:18.319Z,0.50
2018-02-07T06:03:46.099Z,0.50
2018-02-07T06:06:13.647Z,0.40
2018-02-07T06:08:41.096Z,0.40
2018-02-07T06:11:08.586Z,0.40
2018-02-07T06:13:36.083Z,0.30
2018-02-07T06:16:03.967Z,0.30
2018-02-07T06:18:31.442Z,0.30
2018-02-07T06:20:59.682Z,0.20
2018-02-07T06:23:27.168Z,0.20
2018-02-07T06:25:54.644Z,0.20
2018-02-07T06:28:22.548Z,0.20
2018-02-07T06:30:50.147Z,0.20
2018-02-07T06:33:17.632Z,0.20
2018-02-07T06:35:45.138Z,0.20
2018-02-07T06:38:12.614Z,0.20
2018-02-07T06:40:40.435Z,0.10
2018-02-07T06:43:08.005Z,0.20
2018-02-07T06:45:35.480Z,0.30
2018-02-07T06:48:03.026Z,0.30
2018-02-07T06:50:31.266Z,0.30
2018-02-07T06:52:58.770Z,0.20
2018-02-07T06:55:26.355Z,0.30
2018-02-07T06:57:53.834Z,0.30
2018-02-07T07:00:21.348Z,0.30
2018-02-07T07:02:48.819Z,0.30
2018-02-07T07:05:16.467Z,0.30
2018-02-07T07:07:44.033Z,0.30
2018-02-07T07:10:11.507Z,0.40
2018-02-07T07:12:38.995Z,0.40
2018-02-07T07:15:06.515Z,0.40
2018-02-07T07:17:34.002Z,0.40
2018-02-07T07:20:02.244Z,0.50
2018-02-07T07:22:29.754Z,0.40
2018-02-07T07:24:58.020Z,0.40
2018-02-07T07:27:25.526Z,0.40
2018-02-07T07:29:53.766Z,0.50
2018-02-07T07:32:21.266Z,0.50
2018-02-07T07:34:48.754Z,0.50
2018-02-07T07:37:16.994Z,0.50
2018-02-07T07:39:44.520Z,0.50
2018-02-07T07:42:12.051Z,0.50
2018-02-07T07:44:39.526Z,0.60
2018-02-07T07:47:07.106Z,0.60
2018-02-07T07:49:35.351Z,0.60
2018-02-07T07:52:02.844Z,0.60
2018-02-07T07:54:30.322Z,0.70
2018-02-07T07:56:57.814Z,0.70
2018-02-07T07:59:25.293Z,0.70
2018-02-07T08:01:53.575Z,0.70
2018-02-07T08:04:21.854Z,0.80
2018-02-07T08:06:49.462Z,0.80
2018-02-07T08:09:17.018Z,0.80
2018-02-07T08:11:45.258Z,0.90
2018-02-07T08:14:12.742Z,0.80
2018-02-07T08:16:40.222Z,0.90
2018-02-07T08:19:07.694Z,1.00
2018-02-07T08:21:35.192Z,0.90
2018-02-07T08:24:03.435Z,0.90
2018-02-07T08:26:31.026Z,1.00
2018-02-07T08:28:58.501Z,1.00
2018-02-07T08:31:26.065Z,1.00
2018-02-07T08:33:53.882Z,0.90
2018-02-07T08:36:21.370Z,0.90
2018-02-07T08:38:48.859Z,0.90
2018-02-07T08:41:16.346Z,1.00
2018-02-07T08:43:43.842Z,1.10
2018-02-07T08:46:12.098Z,1.20
2018-02-07T08:48:39.586Z,1.20
2018-02-07T08:51:07.063Z,1.30
2018-02-07T08:53:34.626Z,1.20
2018-02-07T08:56:02.098Z,1.20
2018-02-07T08:58:29.571Z,1.30
2018-02-07T09:00:57.054Z,1.30
2018-02-07T09:03:25.298Z,1.40
2018-02-07T09:05:52.804Z,1.30
2018-02-07T09:08:20.280Z,1.40
2018-02-07T09:10:48.587Z,1.60
2018-02-07T09:13:16.130Z,1.50
2018-02-07T09:15:43.610Z,1.70
2018-02-07T09:18:11.921Z,1.90
2018-02-07T09:20:39.398Z,1.90
2018-02-07T09:23:06.932Z,1.80
2018-02-07T09:25:34.408Z,1.90
2018-02-07T09:28:01.971Z,2.00
2018-02-07T09:30:29.542Z,2.10
2018-02-07T09:32:57.114Z,2.10
2018-02-07T09:35:24.602Z,2.10
2018-02-07T09:37:52.846Z,2.00
2018-02-07T09:40:20.338Z,2.10
2018-02-07T09:42:47.851Z,2.10
2018-02-07T09:45:15.418Z,2.20
2018-02-07T09:47:43.661Z,2.20
2018-02-07T09:50:11.145Z,2.20
2018-02-07T09:52:38.630Z,2.20
2018-02-07T09:55:06.902Z,2.40
2018-02-07T09:57:34.474Z,2.40
2018-02-07T10:00:02.050Z,2.50
2018-02-07T10:02:29.522Z,2.70
2018-02-07T10:04:57.011Z,2.90
2018-02-07T10:07:25.246Z,3.50
2018-02-07T10:09:52.760Z,3.50
2018-02-07T10:12:21.805Z,4.30
2018-02-07T10:14:49.292Z,4.20
2018-02-07T10:17:16.833Z,4.70
2018-02-07T10:19:44.358Z,5.10
2018-02-07T10:22:11.843Z,5.30
2018-02-07T10:24:39.328Z,5.50
2018-02-07T10:27:07.575Z,5.50
2018-02-07T10:29:35.050Z,5.50
2018-02-07T10:32:02.534Z,5.40
2018-02-07T10:34:30.004Z,5.30
2018-02-07T10:36:57.512Z,5.20
2018-02-07T10:39:24.983Z,5.20
2018-02-07T10:41:52.514Z,5.20
2018-02-07T10:44:20.003Z,5.10
2018-02-07T10:46:48.246Z,5.20
2018-02-07T10:49:15.746Z,5.20
2018-02-07T10:51:43.329Z,5.50
2018-02-07T10:54:10.818Z,5.90
2018-02-07T10:56:39.083Z,6.30
2018-02-07T10:59:08.057Z,6.30
2018-02-07T11:01:35.546Z,6.30
2018-02-07T11:04:03.015Z,6.10
2018-02-07T11:06:30.510Z,5.90
2018-02-07T11:08:58.750Z,5.60
2018-02-07T11:11:26.218Z,5.50
2018-02-07T11:13:53.707Z,5.50
2018-02-07T11:16:21.174Z,5.40
2018-02-07T11:18:48.773Z,5.40
2018-02-07T11:21:16.253Z,5.20
2018-02-07T11:23:44.534Z,5.20
2018-02-07T11:26:12.022Z,5.20
2018-02-07T11:28:41.283Z,5.10
2018-02-07T11:31:08.770Z,5.00
2018-02-07T11:33:36.254Z,5.20
2018-02-07T11:36:04.283Z,4.90
2018-02-07T11:38:31.766Z,4.90
2018-02-07T11:40:59.263Z,4.90
2018-02-07T11:43:26.759Z,4.90
2018-02-07T11:45:55.077Z,5.10
2018-02-07T11:48:22.615Z,5.10
2018-02-07T11:50:50.102Z,5.20
2018-02-07T11:53:18.346Z,5.10
2018-02-07T11:55:45.834Z,5.10
2018-02-07T11:58:13.301Z,4.90
2018-02-07T12:00:40.782Z,4.80
2018-02-07T12:03:08.267Z,4.60
2018-02-07T12:05:36.510Z,4.00
2018-02-07T12:08:04.007Z,4.00
2018-02-07T12:10:31.479Z,4.00
2018-02-07T12:12:58.952Z,4.00
2018-02-07T12:15:26.521Z,4.10
2018-02-07T12:17:53.999Z,4.20
2018-02-07T12:20:21.508Z,4.10
2018-02-07T12:22:48.986Z,4.10
2018-02-07T12:25:16.486Z,4.10
2018-02-07T12:27:43.971Z,4.20
2018-02-07T12:30:11.444Z,4.30
2018-02-07T12:32:38.931Z,4.30
2018-02-07T12:35:07.183Z,4.50
2018-02-07T12:37:34.705Z,4.40
2018-02-07T12:40:02.944Z,4.60
2018-02-07T12:42:30.538Z,4.60
2018-02-07T12:44:58.015Z,4.70
2018-02-07T12:47:25.481Z,4.80
2018-02-07T12:49:52.975Z,4.80
2018-02-07T12:52:21.210Z,4.60
2018-02-07T12:54:48.698Z,4.60
2018-02-07T12:57:16.178Z,4.60
2018-02-07T12:59:43.674Z,4.70
2018-02-07T13:02:11.915Z,4.60
2018-02-07T13:04:39.390Z,4.60
2018-02-07T13:07:06.970Z,4.70
2018-02-07T13:09:34.443Z,4.80
2018-02-07T13:12:01.934Z,5.00
2018-02-07T13:14:30.241Z,5.20
2018-02-07T13:16:57.731Z,5.10
2018-02-07T13:19:25.217Z,5.10
2018-02-07T13:21:52.685Z,5.20
2018-02-07T13:24:20.172Z,5.20
2018-02-07T13:26:47.682Z,5.10
2018-02-07T13:29:15.948Z,4.80
2018-02-07T13:31:43.518Z,4.70
2018-02-07T13:34:11.021Z,4.60
2018-02-07T13:36:39.282Z,4.80
2018-02-07T13:39:06.754Z,4.80
2018-02-07T13:41:34.246Z,4.80
2018-02-07T13:44:02.483Z,4.50
2018-02-07T13:46:29.966Z,4.50
2018-02-07T13:48:57.437Z,4.50
2018-02-07T13:51:24.930Z,4.60
2018-02-07T13:53:53.169Z,4.70
2018-02-07T13:56:20.642Z,4.70
2018-02-07T13:58:48.177Z,4.60
2018-02-07T14:01:15.654Z,4.50
2018-02-07T14:03:43.220Z,4.20
2018-02-07T14:06:11.472Z,4.00
2018-02-07T14:08:38.961Z,4.00
2018-02-07T14:11:07.201Z,4.00
2018-02-07T14:13:34.706Z,4.10
2018-02-07T14:16:02.202Z,4.10
2018-02-07T14:18:29.684Z,4.00
2018-02-07T14:20:57.174Z,4.10
2018-02-07T14:23:24.650Z,4.00
2018-02-07T14:25:52.146Z,4.00
2018-02-07T14:28:19.621Z,4.10
2018-02-07T14:30:47.102Z,4.00
2018-02-07T14:33:14.666Z,4.00
2018-02-07T14:35:42.142Z,3.90
2018-02-07T14:38:09.630Z,4.00
2018-02-07T14:40:37.894Z,4.10
2018-02-07T14:43:05.413Z,4.10
2018-02-07T14:45:32.971Z,4.10
2018-02-07T14:48:00.538Z,4.10
2018-02-07T14:50:28.794Z,4.00
2018-02-07T14:52:56.370Z,4.00
2018-02-07T14:55:23.868Z,4.00
2018-02-07T14:57:52.118Z,3.90
2018-02-07T15:00:19.639Z,3.90
2018-02-07T15:02:47.118Z,3.80
2018-02-07T15:05:14.591Z,3.80
2018-02-07T15:07:42.083Z,3.70
2018-02-07T15:10:09.554Z,3.70
2018-02-07T15:12:37.099Z,3.60
2018-02-07T15:15:04.695Z,3.70
2018-02-07T15:17:32.246Z,3.80
2018-02-07T15:19:59.820Z,3.90
2018-02-07T15:22:27.393Z,4.10
2018-02-07T15:24:54.886Z,4.20
2018-02-07T15:27:22.397Z,4.30
2018-02-07T15:29:49.909Z,4.20
2018-02-07T15:32:17.435Z,4.20
2018-02-07T15:34:46.446Z,3.90
2018-02-07T15:37:13.915Z,3.90
2018-02-07T15:39:41.390Z,3.80
2018-02-07T15:42:10.382Z,3.50
2018-02-07T15:44:37.854Z,3.50
2018-02-07T15:47:05.338Z,3.50
2018-02-07T15:49:32.815Z,3.40
2018-02-07T15:52:01.092Z,3.30
2018-02-07T15:54:28.596Z,3.30
2018-02-07T15:56:56.083Z,3.20
2018-02-07T15:59:23.570Z,3.10
2018-02-07T16:01:51.043Z,3.00
2018-02-07T16:04:18.526Z,2.90
2018-02-07T16:06:46.047Z,2.90
2018-02-07T16:09:13.543Z,2.80
2018-02-07T16:11:41.010Z,2.70
2018-02-07T16:14:08.527Z,2.60
2018-02-07T16:16:36.014Z,2.50
2018-02-07T16:19:04.252Z,2.40
2018-02-07T16:21:31.747Z,2.40
2018-02-07T16:23:59.218Z,2.30
2018-02-07T16:26:26.702Z,2.20
2018-02-07T16:28:55.098Z,2.20
2018-02-07T16:31:22.675Z,2.10
2018-02-07T16:33:50.147Z,2.10
2018-02-07T16:36:17.630Z,2.00
2018-02-07T16:38:45.863Z,1.90
2018-02-07T16:41:13.405Z,1.90
2018-02-07T16:43:40.878Z,1.90
2018-02-07T16:46:08.407Z,1.80
2018-02-07T16:48:35.980Z,1.80
2018-02-07T16:51:03.553Z,1.80
2018-02-07T16:53:31.058Z,1.70
2018-02-07T16:55:58.566Z,1.70
2018-02-07T16:58:26.067Z,1.60
2018-02-07T17:00:53.599Z,1.60
2018-02-07T17:03:21.247Z,1.50
2018-02-07T17:05:48.876Z,1.50
2018-02-07T17:08:16.490Z,1.40
2018-02-07T17:10:44.091Z,1.40
2018-02-07T17:13:11.749Z,1.40
2018-02-07T17:15:40.167Z,1.30
2018-02-07T17:18:08.007Z,1.30
2018-02-07T17:20:35.687Z,1.30
2018-02-07T17:23:03.669Z,1.30
2018-02-07T17:25:31.332Z,1.20
2018-02-07T17:27:59.129Z,1.10
2018-02-07T17:30:26.783Z,1.10
2018-02-07T17:32:54.419Z,1.10
2018-02-07T17:35:23.910Z,1.10
2018-02-07T17:37:51.767Z,1.00
2018-02-07T17:40:20.250Z,1.10
2018-02-07T17:42:47.892Z,1.00
2018-02-07T17:45:16.301Z,1.00
2018-02-07T17:47:44.012Z,0.90
2018-02-07T17:50:11.983Z,0.90
2018-02-07T17:52:39.788Z,0.90
2018-02-07T17:55:09.016Z,0.80
2018-02-07T17:57:36.745Z,0.80
2018-02-07T18:00:04.406Z,0.80
2018-02-07T18:02:32.054Z,0.80
2018-02-07T18:04:59.907Z,0.70
2018-02-07T18:07:27.515Z,0.70
2018-02-07T18:09:55.138Z,0.60
2018-02-07T18:12:22.804Z,0.60
2018-02-07T18:14:50.422Z,0.60
2018-02-07T18:17:18.033Z,0.50
2018-02-07T18:19:45.583Z,0.50
2018-02-07T18:22:13.198Z,0.50
2018-02-07T18:24:40.696Z,0.50
2018-02-07T18:27:08.218Z,0.50
2018-02-07T18:29:36.508Z,0.50
2018-02-07T18:32:04.778Z,0.40
2018-02-07T18:34:33.105Z,0.40
2018-02-07T18:37:00.575Z,0.40
2018-02-07T18:39:28.147Z,0.40
2018-02-07T18:41:56.390Z,0.40
2018-02-07T18:44:23.871Z,0.30
2018-02-07T18:46:51.354Z,0.30
2018-02-07T18:49:19.622Z,0.30
2018-02-07T18:51:47.098Z,0.30
2018-02-07T18:54:14.831Z,0.30
2018-02-07T18:56:42.323Z,0.30
2018-02-07T18:59:09.802Z,0.30
2018-02-07T19:01:37.290Z,0.30
2018-02-07T19:04:04.763Z,0.30
2018-02-07T19:06:32.327Z,0.20
2018-02-07T19:08:59.798Z,0.20
2018-02-07T19:11:27.358Z,0.20
2018-02-07T19:13:55.112Z,0.20
2018-02-07T19:16:22.688Z,0.20
2018-02-07T19:18:50.312Z,0.20
2018-02-07T19:21:18.654Z,0.20
2018-02-07T19:23:46.206Z,0.20
2018-02-07T19:26:14.615Z,0.20
2018-02-07T19:28:42.301Z,0.10
2018-02-07T19:31:09.858Z,0.20
2018-02-07T19:33:37.420Z,0.10
2018-02-07T19:36:05.765Z,0.10
2018-02-07T19:38:34.268Z,0.10
2018-02-07T19:41:01.872Z,0.10
2018-02-07T19:43:29.549Z,0.00
2018-02-07T19:45:58.191Z,0.00
2018-02-07T19:48:25.760Z,-0.10
2018-02-07T19:50:53.279Z,0.00
2018-02-07T19:53:21.593Z,-0.10
2018-02-07T19:55:49.069Z,-0.10
2018-02-07T19:58:16.574Z,-0.10
2018-02-07T20:00:44.059Z,-0.10
2018-02-07T20:03:11.572Z,-0.10
2018-02-07T20:05:39.145Z,-0.20
2018-02-07T20:08:06.630Z,-0.20
2018-02-07T20:10:34.146Z,-0.20
2018-02-07T20:13:01.728Z,-0.20
2018-02-07T20:15:29.305Z,-0.30
2018-02-07T20:17:56.788Z,-0.30
2018-02-07T20:20:38.187Z,-0.30
2018-02-07T20:23:06.454Z,-0.30
2018-02-07T20:25:33.934Z,-0.30
2018-02-07T20:28:02.218Z,-0.40
2018-02-07T20:30:29.702Z,-0.40
2018-02-07T20:32:58.009Z,-0.40
2018-02-07T20:35:25.491Z,-0.40
2018-02-07T20:37:52.999Z,-0.40
2018-02-07T20:40:20.486Z,-0.40
2018-02-07T20:42:47.986Z,-0.40
2018-02-07T20:45:15.533Z,-0.50
2018-02-07T20:47:43.011Z,-0.50
2018-02-07T20:50:11.282Z,-0.50
2018-02-07T20:52:38.858Z,-0.50
2018-02-07T20:55:06.359Z,-0.50
2018-02-07T20:57:34.717Z,-0.60
2018-02-07T21:00:02.199Z,-0.60
2018-02-07T21:02:30.469Z,-0.60
2018-02-07T21:04:57.951Z,-0.60
2018-02-07T21:07:25.426Z,-0.70
2018-02-07T21:09:53.686Z,-0.60
2018-02-07T21:12:21.167Z,-0.70
2018-02-07T21:14:48.675Z,-0.60
2018-02-07T21:17:16.916Z,-0.70
2018-02-07T21:19:44.396Z,-0.70
2018-02-07T21:22:11.938Z,-0.70
2018-02-07T21:24:39.411Z,-0.70
2018-02-07T21:27:07.023Z,-0.70
2018-02-07T21:29:34.498Z,-0.70
2018-02-07T21:32:02.759Z,-0.80
2018-02-07T21:34:30.303Z,-0.80
2018-02-07T21:36:57.790Z,-0.80
2018-02-07T21:39:25.382Z,-0.80
2018-02-07T21:41:52.874Z,-0.80
2018-02-07T21:44:21.120Z,-0.80
2018-02-07T21:46:49.031Z,-0.90
2018-02-07T21:49:16.510Z,-0.90
2018-02-07T21:51:44.761Z,-0.90
2018-02-07T21:54:12.246Z,-1.00
2018-02-07T21:56:39.727Z,-1.00
2018-02-07T21:59:07.242Z,-1.00
2018-02-07T22:01:34.722Z,-1.00
2018-02-07T22:04:02.202Z,-1.00
2018-02-07T22:06:29.702Z,-1.10
2018-02-07T22:08:57.177Z,-1.10
2018-02-07T22:11:24.691Z,-1.10
2018-02-07T22:13:52.258Z,-1.10
2018-02-07T22:16:19.733Z,-1.10
2018-02-07T22:18:47.234Z,-1.20
2018-02-07T22:21:14.737Z,-1.20
2018-02-07T22:23:42.226Z,-1.20
2018-02-07T22:26:10.470Z,-1.30
2018-02-07T22:28:37.974Z,-1.30
2018-02-07T22:31:06.286Z,-1.30
2018-02-07T22:33:33.766Z,-1.30
2018-02-07T22:36:01.250Z,-1.30
2018-02-07T22:38:28.770Z,-1.30
2018-02-07T22:40:56.371Z,-1.40
2018-02-07T22:43:23.858Z,-1.40
2018-02-07T22:45:51.353Z,-1.40
2018-02-07T22:48:18.929Z,-1.40
2018-02-07T22:50:46.411Z,-1.50
2018-02-07T22:55:48.525Z,-1.50
2018-02-07T22:58:16.026Z,-1.50
2018-02-07T23:00:44.295Z,-1.50
2018-02-07T23:03:11.866Z,-1.50
2018-02-07T23:05:40.130Z,-1.60
2018-02-07T23:08:07.610Z,-1.60
2018-02-07T23:10:35.194Z,-1.60
2018-02-07T23:13:02.671Z,-1.60
2018-02-07T23:15:30.164Z,-1.60
2018-02-07T23:17:58.451Z,-1.60
2018-02-07T23:20:25.906Z,-1.70
2018-02-07T23:22:54.167Z,-1.60
2018-02-07T23:25:21.643Z,-1.70
2018-02-07T23:27:49.156Z,-1.70
2018-02-07T23:30:17.409Z,-1.70
2018-02-07T23:32:45.008Z,-1.70
2018-02-07T23:35:13.287Z,-1.80
2018-02-07T23:37:41.597Z,-1.80
2018-02-07T23:40:09.070Z,-1.80
2018-02-07T23:42:36.562Z,-1.80
2018-02-07T23:45:04.038Z,-1.80
2018-02-07T23:47:31.579Z,-1.80
2018-02-07T23:49:59.056Z,-1.80
2018-02-07T23:52:26.546Z,-1.90
2018-02-07T23:54:54.035Z,-1.90
2018-02-07T23:57:21.651Z,-1.90
2018-02-07T23:59:49.137Z,-1.90
